Time;durP1;ratioP1;P1;durP2;ratioP2;P2;SDS_P1;SDS_P2;PMS_P1;PMS_P2;Temp;Humidity;BMP_temperature;BMP_pressure;BME280_temperature;BME280_humidity;BME280_pressure;Samples;Min_cycle;Max_cycle;Signal;HPM_P1;HPM_P2
2022/05/31 00:04:36;;;;;;;6.70;5.90;;;;;;;3.41;100.00;96560.38;10370769;28;20688;-78
2022/05/31 00:09:37;;;;;;;7.40;6.60;;;;;;;3.36;100.00;96555.56;10353001;28;20197;-78
2022/05/31 00:14:38;;;;;;;14.30;7.03;;;;;;;3.29;100.00;96548.38;10370550;28;20189;-78
2022/05/31 00:19:38;;;;;;;11.87;7.33;;;;;;;3.28;100.00;96557.06;10370269;28;20189;-77
2022/05/31 00:24:39;;;;;;;9.37;6.60;;;;;;;3.31;100.00;96549.91;10370083;28;20271;-77
2022/05/31 00:29:40;;;;;;;7.87;6.27;;;;;;;3.32;100.00;96550.72;10352588;28;20201;-76
2022/05/31 00:34:43;;;;;;;10.53;6.43;;;;;;;3.25;100.00;96552.13;10352494;28;20193;-76
2022/05/31 00:39:44;;;;;;;8.03;5.90;;;;;;;3.21;100.00;96552.34;10351843;28;20831;-76
2022/05/31 00:44:44;;;;;;;7.00;5.30;;;;;;;3.17;100.00;96556.13;10352316;28;20216;-76
2022/05/31 00:49:50;;;;;;;6.87;6.23;;;;;;;3.06;100.00;96550.91;10335277;28;20240;-76
2022/05/31 00:55:00;;;;;;;7.73;6.30;;;;;;;3.09;100.00;96542.91;10335427;28;20312;-76
2022/05/31 01:00:12;;;;;;;10.13;6.53;;;;;;;3.04;100.00;96551.00;10334536;28;20189;-76
2022/05/31 01:05:13;;;;;;;10.70;5.80;;;;;;;3.02;100.00;96541.75;10351211;28;20248;-76
2022/05/31 01:10:14;;;;;;;7.60;5.60;;;;;;;3.00;100.00;96548.78;10351082;28;20204;-76
2022/05/31 01:15:42;;;;;;;6.73;5.73;;;;;;;2.94;100.00;96534.53;10354696;28;20185;-76
2022/05/31 01:21:01;;;;;;;7.83;5.73;;;;;;;2.91;100.00;96534.78;10353011;28;20276;-77
2022/05/31 01:26:34;;;;;;;5.50;4.90;;;;;;;2.87;100.00;96535.94;10351061;28;20221;-76
2022/05/31 01:31:53;;;;;;;6.97;5.90;;;;;;;2.85;100.00;96540.41;10350717;28;20208;-76
2022/05/31 01:36:55;;;;;;;10.07;6.43;;;;;;;2.76;100.00;96539.31;10340601;28;20659;-76
2022/05/31 01:41:59;;;;;;;6.10;5.03;;;;;;;2.72;100.00;96540.44;10376149;28;20723;-76
2022/05/31 01:47:01;;;;;;;6.40;5.80;;;;;;;2.70;100.00;96541.53;10358776;28;20223;-76
2022/05/31 01:52:03;;;;;;;4.27;3.87;;;;;;;2.71;100.00;96532.81;10375668;28;20276;-76
2022/05/31 01:57:05;;;;;;;6.10;5.17;;;;;;;2.74;100.00;96535.16;10342235;28;20677;-76
2022/05/31 02:02:06;;;;;;;7.90;5.77;;;;;;;2.64;100.00;96532.44;10302392;28;20287;-76
2022/05/31 02:07:16;;;;;;;8.63;5.63;;;;;;;2.62;100.00;96527.38;10317259;28;20280;-76
2022/05/31 02:12:20;;;;;;;8.03;5.53;;;;;;;2.73;100.00;96536.94;10317565;28;20194;-76
2022/05/31 02:17:37;;;;;;;7.93;5.63;;;;;;;2.71;100.00;96541.41;10316999;28;20182;-76
2022/05/31 02:22:56;;;;;;;7.27;5.73;;;;;;;2.65;100.00;96532.31;10302878;28;20565;-76
2022/05/31 02:27:56;;;;;;;8.90;5.47;;;;;;;2.61;100.00;96535.25;10334154;28;20209;-76
2022/05/31 02:32:57;;;;;;;8.00;6.20;;;;;;;2.57;100.00;96529.44;10316727;28;20194;-76
2022/05/31 02:37:58;;;;;;;4.87;3.67;;;;;;;2.57;100.00;96526.88;10299878;28;20194;-75
2022/05/31 02:42:59;;;;;;;6.97;6.10;;;;;;;2.58;100.00;96522.53;10316283;28;20345;-76
2022/05/31 02:47:59;;;;;;;8.17;5.83;;;;;;;2.54;100.00;96527.09;10315182;28;20218;-75
2022/05/31 02:53:00;;;;;;;8.10;6.80;;;;;;;2.48;100.00;96527.53;10299922;28;20198;-76
2022/05/31 02:58:00;;;;;;;6.67;5.97;;;;;;;2.44;100.00;96532.13;10315180;28;20325;-76
2022/05/31 03:03:19;;;;;;;7.27;6.00;;;;;;;2.47;100.00;96520.75;10328669;28;20283;-76
2022/05/31 03:08:38;;;;;;;6.37;5.70;;;;;;;2.52;100.00;96528.16;10355768;28;20193;-76
2022/05/31 03:13:46;;;;;;;7.17;6.23;;;;;;;2.53;100.00;96522.88;10352095;28;20190;-76
2022/05/31 03:18:53;;;;;;;14.00;7.10;;;;;;;2.55;100.00;96525.34;10352410;28;20247;-76
2022/05/31 03:23:58;;;;;;;6.83;5.90;;;;;;;2.56;100.00;96521.81;10335199;28;20221;-76
2022/05/31 03:28:58;;;;;;;9.73;5.33;;;;;;;2.62;100.00;96516.19;10351265;28;20197;-76
2022/05/31 03:33:59;;;;;;;9.77;6.47;;;;;;;2.62;100.00;96519.63;10335461;28;20198;-76
2022/05/31 03:39:00;;;;;;;8.70;6.80;;;;;;;2.60;100.00;96512.91;10334658;28;20185;-76
2022/05/31 03:44:02;;;;;;;10.90;6.43;;;;;;;2.62;100.00;96506.69;10350623;28;20219;-76
2022/05/31 03:49:21;;;;;;;14.60;6.80;;;;;;;2.68;100.00;96506.25;10367904;28;20206;-76
2022/05/31 03:54:29;;;;;;;7.67;6.87;;;;;;;2.74;100.00;96512.72;10350386;28;20244;-76
2022/05/31 03:59:52;;;;;;;7.43;6.17;;;;;;;2.92;100.00;96507.13;10365758;28;20202;-76
2022/05/31 04:04:55;;;;;;;6.43;5.70;;;;;;;3.00;100.00;96517.72;10352243;28;20224;-76
2022/05/31 04:09:55;;;;;;;7.50;6.70;;;;;;;3.14;100.00;96508.91;10336225;28;20197;-76
2022/05/31 04:14:57;;;;;;;8.97;5.43;;;;;;;3.19;100.00;96517.19;10352699;28;20185;-76
2022/05/31 04:19:57;;;;;;;8.63;6.20;;;;;;;3.37;100.00;96520.16;10352916;28;20185;-76
2022/05/31 04:25:01;;;;;;;6.77;5.87;;;;;;;3.54;100.00;96522.28;10353109;28;20231;-76
2022/05/31 04:30:20;;;;;;;7.33;5.97;;;;;;;3.68;100.00;96515.22;10370175;28;20197;-76
2022/05/31 04:35:46;;;;;;;10.40;7.07;;;;;;;3.79;100.00;96520.38;10369842;28;20617;-76
2022/05/31 04:40:46;;;;;;;12.93;7.53;;;;;;;4.04;100.00;96528.81;10352370;28;20258;-76
2022/05/31 04:45:53;;;;;;;10.37;7.47;;;;;;;4.50;100.00;96526.94;10370004;28;20312;-77
2022/05/31 04:50:59;;;;;;;9.70;6.30;;;;;;;4.80;100.00;96527.06;10352158;28;20212;-77
2022/05/31 04:56:08;;;;;;;10.17;6.40;;;;;;;5.04;100.00;96518.22;10351183;28;20653;-77
2022/05/31 05:01:09;;;;;;;9.77;5.97;;;;;;;5.34;100.00;96520.03;10351434;28;20203;-77
2022/05/31 05:06:14;;;;;;;6.27;5.33;;;;;;;5.58;100.00;96524.09;10351549;28;20351;-76
2022/05/31 05:11:19;;;;;;;10.13;5.37;;;;;;;5.74;100.00;96522.81;10351205;28;20198;-77
2022/05/31 05:16:33;;;;;;;6.50;5.80;;;;;;;5.81;100.00;96510.94;10351531;28;20710;-77
2022/05/31 05:21:34;;;;;;;6.90;5.77;;;;;;;6.04;100.00;96517.59;10376366;28;20254;-77
2022/05/31 05:26:35;;;;;;;6.40;5.10;;;;;;;6.43;100.00;96516.84;10351057;28;20213;-77
2022/05/31 05:32:11;;;;;;;8.27;5.23;;;;;;;6.50;100.00;96501.53;10294755;28;20197;-77
2022/05/31 05:37:11;;;;;;;11.67;5.03;;;;;;;6.71;100.00;96499.59;10351232;28;20219;-77
2022/05/31 05:42:13;;;;;;;6.03;5.27;;;;;;;6.71;100.00;96506.59;10350832;28;20654;-79
2022/05/31 05:47:34;;;;;;;8.60;5.10;;;;;;;7.23;100.00;96501.03;10355560;28;20213;-77
2022/05/31 05:52:34;;;;;;;5.67;4.77;;;;;;;7.58;100.00;96500.41;10334248;28;20198;-77
2022/05/31 05:57:54;;;;;;;12.33;5.43;;;;;;;8.09;100.00;96493.00;10352964;28;20236;-77
2022/05/31 06:03:32;;;;;;;6.87;4.93;;;;;;;8.73;100.00;96488.59;10368067;28;20193;-77
2022/05/31 06:08:48;;;;;;;6.50;4.10;;;;;;;9.45;100.00;96485.84;10334642;28;20197;-78
2022/05/31 06:13:55;;;;;;;11.60;4.37;;;;;;;9.86;100.00;96471.31;10352669;28;20193;-78
2022/05/31 06:19:00;;;;;;;13.30;4.38;;;;;;;10.17;100.00;96469.78;10362265;28;20198;-79
2022/05/31 06:24:01;;;;;;;15.20;4.57;;;;;;;10.49;100.00;96478.72;10340872;28;20209;-78
2022/05/31 06:29:03;;;;;;;19.20;5.63;;;;;;;10.85;100.00;96486.25;10341219;28;20191;-79
2022/05/31 06:34:04;;;;;;;22.70;6.07;;;;;;;11.40;100.00;96478.66;10341260;28;20630;-80
2022/05/31 06:39:24;;;;;;;9.70;4.68;;;;;;;11.58;100.00;96488.97;10359880;28;20284;-80
2022/05/31 06:44:24;;;;;;;6.85;3.33;;;;;;;12.43;100.00;96476.97;10356856;28;20680;-81
2022/05/31 06:49:43;;;;;;;7.07;3.75;;;;;;;12.83;100.00;96462.72;10374365;28;20209;-81
2022/05/31 07:00:50;;;;;;;6.75;2.92;;;;;;;14.49;91.48;96422.19;10362711;28;20196;-82
2022/05/31 07:05:58;;;;;;;2.92;2.17;;;;;;;16.62;84.73;96390.81;10394645;28;20220;-80
2022/05/31 07:11:00;;;;;;;5.07;2.75;;;;;;;15.60;87.36;96438.25;10385952;28;20189;-79
2022/05/31 07:16:19;;;;;;;6.30;2.22;;;;;;;16.93;79.21;96382.28;10412255;28;20220;-81
2022/05/31 07:21:20;;;;;;;3.42;1.60;;;;;;;16.60;76.70;96371.72;10399188;28;20646;-81
2022/05/31 07:26:21;;;;;;;3.15;1.65;;;;;;;17.89;65.70;96238.78;10372968;28;20212;-81
2022/05/31 07:31:26;;;;;;;3.65;1.45;;;;;;;18.74;64.64;96259.47;10377637;28;20243;-80
2022/05/31 07:36:39;;;;;;;2.67;1.25;;;;;;;17.78;57.94;96128.97;10373061;28;20197;-79
2022/05/31 07:41:42;;;;;;;3.47;1.83;;;;;;;17.54;57.85;96143.81;10361408;28;20191;-81
2022/05/31 07:46:42;;;;;;;2.00;1.30;;;;;;;17.84;59.09;96183.75;10353382;28;20236;-81
2022/05/31 07:51:43;;;;;;;4.50;1.30;;;;;;;15.70;60.90;96193.09;10352553;28;20240;-82
2022/05/31 07:57:05;;;;;;;1.90;1.48;;;;;;;14.11;67.32;96283.59;10399714;28;20232;-79
2022/05/31 08:02:24;;;;;;;4.50;1.60;;;;;;;14.40;65.39;96245.72;10411265;28;20205;-80
2022/05/31 08:07:28;;;;;;;1.88;1.40;;;;;;;14.99;65.76;96259.47;10393031;28;20611;-78
2022/05/31 08:12:29;;;;;;;1.75;1.40;;;;;;;16.49;62.34;96211.84;10410328;28;20641;-79
2022/05/31 08:17:30;;;;;;;2.50;1.40;;;;;;;16.14;59.47;96151.28;10411565;28;20200;-79
2022/05/31 08:22:30;;;;;;;2.20;1.50;;;;;;;17.24;57.44;96128.53;10409770;28;20188;-79
2022/05/31 08:27:34;;;;;;;5.40;1.40;;;;;;;18.24;58.39;96175.50;10397525;28;20221;-78
2022/05/31 08:32:36;;;;;;;2.10;1.13;;;;;;;16.89;54.67;96060.94;10368948;28;20220;-79
2022/05/31 08:37:36;;;;;;;2.70;1.50;;;;;;;17.69;53.79;96064.03;10351328;28;20185;-79
2022/05/31 08:42:52;;;;;;;1.67;0.75;;;;;;;17.07;53.37;96040.88;10334425;28;20197;-79
2022/05/31 08:47:58;;;;;;;2.15;1.35;;;;;;;17.66;53.81;96075.88;10368855;28;20224;-79
2022/05/31 08:53:10;;;;;;;3.38;1.40;;;;;;;17.74;54.95;96091.50;10368567;28;20190;-77
2022/05/31 08:58:33;;;;;;;1.73;1.40;;;;;;;18.59;49.86;95991.91;10350682;28;20236;-78
2022/05/31 09:03:42;;;;;;;3.60;1.42;;;;;;;19.95;48.74;95999.16;10351170;28;20193;-79
2022/05/31 09:09:03;;;;;;;1.60;1.10;;;;;;;19.98;48.06;95973.16;10351040;28;20268;-78
2022/05/31 09:14:20;;;;;;;2.47;1.40;;;;;;;18.86;49.78;95995.00;10350442;28;20220;-78
2022/05/31 09:19:27;;;;;;;3.47;1.50;;;;;;;18.02;50.54;95989.53;10350222;28;20193;-79
2022/05/31 09:24:27;;;;;;;3.90;1.42;;;;;;;18.76;47.79;95959.41;10350605;28;20304;-78
2022/05/31 09:30:02;;;;;;;3.53;1.38;;;;;;;18.41;46.36;95905.22;10367557;28;20192;-79
2022/05/31 09:35:22;;;;;;;2.03;1.40;;;;;;;19.84;47.28;95984.03;10326876;28;20206;-79
2022/05/31 09:40:46;;;;;;;3.13;1.17;;;;;;;18.58;48.71;95974.34;10376559;28;20201;-77
2022/05/31 09:45:53;;;;;;;3.22;1.25;;;;;;;17.92;49.50;95976.00;10408914;28;20252;-78
2022/05/31 09:51:18;;;;;;;5.22;1.60;;;;;;;18.21;52.06;96053.16;10391250;28;20196;-79
2022/05/31 10:02:24;;;;;;;3.40;1.33;;;;;;;17.92;49.98;95991.91;10418485;28;20208;-78
2022/05/31 10:07:37;;;;;;;1.42;1.17;;;;;;;18.70;47.93;95966.44;10397837;28;20231;-80
2022/05/31 10:12:54;;;;;;;1.42;1.10;;;;;;;16.87;49.09;95921.97;10397363;28;20192;-78
2022/05/31 10:18:04;;;;;;;4.13;1.15;;;;;;;17.07;51.13;95986.09;10414690;28;20184;-78
2022/05/31 10:23:13;;;;;;;2.78;1.17;;;;;;;17.90;50.28;95992.13;10397906;28;20192;-78
2022/05/31 10:28:37;;;;;;;2.38;1.25;;;;;;;17.88;46.17;95880.19;10400114;28;20204;-79
2022/05/31 10:33:40;;;;;;;2.30;1.27;;;;;;;17.92;47.34;95913.22;10381006;28;20882;-79
2022/05/31 10:38:43;;;;;;;3.50;1.30;;;;;;;17.68;48.92;95944.03;10356970;28;20280;-78
2022/05/31 10:43:52;;;;;;;2.28;1.15;;;;;;;17.52;47.00;95891.63;10377674;28;20237;-77
2022/05/31 10:48:56;;;;;;;3.33;1.20;;;;;;;18.80;43.93;95831.34;10375335;28;21004;-78
2022/05/31 10:54:05;;;;;;;3.90;1.35;;;;;;;18.96;41.95;95771.50;10374522;28;20369;-78
2022/05/31 10:59:16;;;;;;;4.72;1.20;;;;;;;18.54;43.80;95819.34;10357654;28;20193;-76
2022/05/31 11:04:30;;;;;;;6.75;1.80;;;;;;;18.40;44.96;95849.75;10382462;28;20328;-76
2022/05/31 11:15:41;;;;;;;2.60;1.10;;;;;;;19.83;40.60;95777.78;10359245;28;20205;-77
2022/05/31 11:20:44;;;;;;;4.32;1.25;;;;;;;18.24;41.38;95729.25;10411740;28;20649;-78
2022/05/31 11:25:57;;;;;;;6.47;1.40;;;;;;;17.88;44.04;95813.97;10411957;28;20262;-77
2022/05/31 11:31:22;;;;;;;1.30;1.00;;;;;;;17.94;44.60;95836.94;10358711;28;20193;-78
2022/05/31 11:36:41;;;;;;;3.10;0.88;;;;;;;19.16;41.94;95792.38;10375415;28;20408;-77
2022/05/31 11:42:03;;;;;;;3.08;1.17;;;;;;;18.34;42.15;95777.22;10409806;28;20195;-79
2022/05/31 11:47:12;;;;;;;2.33;1.30;;;;;;;17.20;44.50;95812.38;10411854;28;20224;-79
2022/05/31 11:52:54;;;;;;;0.90;0.90;;;;;;;17.90;43.54;95816.41;10394156;28;20211;-77
2022/05/31 11:58:05;;;;;;;2.20;1.10;;;;;;;17.25;45.23;95838.97;10411189;28;20311;-77
2022/05/31 12:03:13;;;;;;;3.17;1.40;;;;;;;17.19;45.39;95840.66;10410540;28;20560;-78
2022/05/31 12:08:51;;;;;;;2.35;1.10;;;;;;;17.79;43.41;95805.53;10411128;28;20224;-76
2022/05/31 12:13:53;;;;;;;4.55;1.40;;;;;;;17.55;46.08;95870.00;10375036;28;20740;-77
2022/05/31 12:19:25;;;;;;;3.90;1.17;;;;;;;18.06;44.58;95844.13;10352021;28;20205;-77
2022/05/31 12:24:31;;;;;;;6.45;2.30;;;;;;;18.39;45.07;95869.34;10389769;28;20278;-77
2022/05/31 12:29:39;;;;;;;1.30;1.00;;;;;;;19.92;42.03;95824.19;10325080;28;20197;-77
2022/05/31 12:34:40;;;;;;;5.57;2.10;;;;;;;21.42;39.71;95803.31;10344123;28;20192;-78
2022/05/31 12:39:47;;;;;;;2.10;1.35;;;;;;;19.27;41.05;95750.09;10392224;28;20714;-77
2022/05/31 12:44:48;;;;;;;1.88;1.17;;;;;;;18.19;40.95;95714.03;10369659;28;20700;-77
2022/05/31 12:49:54;;;;;;;1.20;1.00;;;;;;;19.19;41.90;95793.75;10381248;28;20248;-76
2022/05/31 12:54:56;;;;;;;1.67;1.20;;;;;;;18.50;39.73;95689.03;10388191;28;20275;-77
2022/05/31 12:59:57;;;;;;;3.40;1.10;;;;;;;18.93;39.90;95716.25;10398451;28;20192;-76
2022/05/31 13:05:06;;;;;;;2.22;1.00;;;;;;;18.73;42.44;95774.97;10408755;28;20298;-77
2022/05/31 13:10:27;;;;;;;3.03;1.20;;;;;;;20.54;38.57;95729.44;10409359;28;20196;-77
2022/05/31 13:20:56;;;;;;;5.13;1.23;;;;;;;19.63;40.60;95766.72;10394187;28;20193;-78
2022/05/31 13:26:01;;;;;;;2.33;1.58;;;;;;;19.05;42.06;95787.88;10365693;28;20225;-77
2022/05/31 13:31:04;;;;;;;1.90;1.00;;;;;;;18.85;41.46;95762.53;10352961;28;20541;-78
2022/05/31 13:36:12;;;;;;;2.63;1.10;;;;;;;18.87;43.14;95810.84;10374494;28;20276;-76
2022/05/31 13:41:16;;;;;;;3.05;1.25;;;;;;;18.06;44.40;95818.44;10323987;28;20222;-76
2022/05/31 13:52:38;;;;;;;1.85;1.40;;;;;;;17.88;42.55;95757.50;10357206;28;20208;-75
2022/05/31 13:57:50;;;;;;;17.40;1.50;;;;;;;17.63;44.13;95795.56;10391804;28;20244;-76
2022/05/31 14:03:05;;;;;;;1.25;1.00;;;;;;;18.45;43.68;95823.38;10392590;28;20192;-76
2022/05/31 14:08:06;;;;;;;1.25;1.00;;;;;;;19.74;40.74;95760.53;10368732;28;20247;-76
2022/05/31 14:13:10;;;;;;;2.50;0.93;;;;;;;20.67;38.74;95733.63;10390020;28;20189;-76
2022/05/31 14:18:12;;;;;;;4.47;0.98;;;;;;;20.74;37.24;95677.59;10337117;28;20257;-76
2022/05/31 14:23:20;;;;;;;5.00;1.02;;;;;;;20.29;39.26;95725.34;10370149;28;20197;-76
2022/05/31 14:28:23;;;;;;;3.80;1.30;;;;;;;19.60;40.89;95752.88;10366954;28;20274;-75
2022/05/31 14:33:25;;;;;;;7.55;1.52;;;;;;;19.07;42.39;95780.50;10413847;28;20716;-76
2022/05/31 14:38:38;;;;;;;3.75;1.33;;;;;;;19.55;41.70;95765.25;10379097;28;20220;-76
2022/05/31 14:44:02;;;;;;;1.73;1.00;;;;;;;19.64;42.15;95773.66;10395408;28;20287;-76
2022/05/31 14:49:18;;;;;;;3.92;1.30;;;;;;;19.28;44.29;95829.53;10412946;28;20235;-76
2022/05/31 14:54:37;;;;;;;4.47;1.20;;;;;;;19.27;43.04;95792.59;10393279;28;20322;-77
2022/05/31 14:59:38;;;;;;;4.38;1.20;;;;;;;18.35;43.38;95770.91;10395909;28;20197;-77
2022/05/31 15:04:48;;;;;;;2.38;1.30;;;;;;;18.99;43.75;95802.91;10354607;28;20220;-77
2022/05/31 15:10:13;;;;;;;3.15;1.10;;;;;;;21.23;40.04;95784.19;10353888;28;20190;-76
2022/05/31 15:20:37;;;;;;;13.63;4.50;;;;;;;20.12;44.11;95860.16;10343524;28;20665;-79
2022/05/31 15:25:37;;;;;;;2.47;1.27;;;;;;;19.83;44.48;95857.50;10373830;28;20718;-77
2022/05/31 15:30:38;;;;;;;4.35;1.40;;;;;;;19.09;46.82;95883.78;10391195;28;20200;-76
2022/05/31 15:35:38;;;;;;;3.20;1.25;;;;;;;19.50;46.30;95888.16;10409070;28;20267;-77
2022/05/31 15:40:39;;;;;;;2.58;1.33;;;;;;;19.58;44.66;95829.31;10393951;28;20193;-77
2022/05/31 15:45:39;;;;;;;9.25;5.30;;;;;;;21.05;45.17;95885.69;10392871;28;20303;-79
2022/05/31 15:50:39;;;;;;;3.05;1.48;;;;;;;19.62;45.64;95816.41;10364132;28;20197;-77
2022/05/31 15:55:40;;;;;;;2.15;1.60;;;;;;;19.41;44.66;95792.06;10360106;28;20689;-76
2022/05/31 16:00:40;;;;;;;5.53;1.40;;;;;;;20.13;43.95;95795.28;10365288;28;20223;-76
2022/05/31 16:05:41;;;;;;;3.72;1.33;;;;;;;19.08;45.08;95787.41;10389071;28;20217;-77
2022/05/31 16:10:41;;;;;;;1.55;1.40;;;;;;;19.05;45.95;95799.31;10382467;28;20200;-77
2022/05/31 16:15:43;;;;;;;3.85;1.40;;;;;;;19.95;45.06;95804.28;10369551;28;20192;-77
2022/05/31 16:20:43;;;;;;;7.18;1.52;;;;;;;20.85;44.39;95805.22;10350785;28;20193;-77
2022/05/31 16:25:44;;;;;;;3.20;1.90;;;;;;;19.19;46.49;95786.59;10352458;28;20670;-77
2022/05/31 16:30:51;;;;;;;2.22;1.30;;;;;;;19.19;45.38;95754.72;10383292;28;20736;-77
2022/05/31 16:35:53;;;;;;;3.33;1.23;;;;;;;19.87;46.81;95818.75;10402302;28;20258;-77
2022/05/31 16:46:14;;;;;;;1.92;1.10;;;;;;;19.51;45.89;95775.53;10407812;28;20327;-77
2022/05/31 16:51:27;;;;;;;3.58;1.58;;;;;;;19.40;47.25;95817.03;10410069;28;20995;-77
2022/05/31 16:56:32;;;;;;;2.53;1.65;;;;;;;19.09;48.37;95820.09;10409492;28;20236;-77
2022/05/31 17:01:32;;;;;;;2.97;1.73;;;;;;;18.98;49.04;95833.13;10390228;28;20204;-77
2022/05/31 17:17:11;;;;;;;1.83;1.30;;;;;;;18.30;50.51;95835.22;10367759;28;20196;-77
2022/05/31 17:22:11;;;;;;;5.18;1.65;;;;;;;18.02;51.67;95848.25;10367330;28;20632;-77
2022/05/31 17:27:12;;;;;;;2.45;1.60;;;;;;;17.76;52.75;95858.94;10367751;28;20577;-77
2022/05/31 17:32:12;;;;;;;1.85;1.40;;;;;;;17.81;52.54;95858.28;10365558;28;20259;-77
2022/05/31 17:37:12;;;;;;;2.53;1.75;;;;;;;17.79;53.75;95892.97;10367376;28;20196;-78
2022/05/31 17:42:13;;;;;;;5.18;1.60;;;;;;;17.45;56.26;95923.47;10367952;28;20696;-78
2022/05/31 17:47:13;;;;;;;4.65;1.52;;;;;;;17.51;57.83;95951.72;10367652;28;20704;-78
2022/05/31 17:52:14;;;;;;;2.17;1.52;;;;;;;17.18;59.90;95992.56;10367503;28;20557;-77
2022/05/31 17:57:15;;;;;;;3.50;1.70;;;;;;;16.52;63.66;96066.00;10350279;28;20257;-77
2022/05/31 18:02:15;;;;;;;6.00;1.67;;;;;;;16.20;64.14;96067.69;10367106;28;20284;-78
2022/05/31 18:07:15;;;;;;;2.10;1.63;;;;;;;15.37;70.75;96177.22;10366923;28;20228;-77
2022/05/31 18:12:16;;;;;;;3.22;1.80;;;;;;;14.40;78.03;96203.56;10349029;28;20197;-78
2022/05/31 18:17:16;;;;;;;3.00;1.70;;;;;;;13.87;77.36;96197.88;10370817;28;20200;-78
2022/05/31 18:22:19;;;;;;;6.45;2.00;;;;;;;12.97;87.42;96226.28;10374112;28;20186;-80
2022/05/31 18:27:19;;;;;;;3.75;2.08;;;;;;;12.42;100.00;96202.94;10374178;28;20631;-78
2022/05/31 18:32:22;;;;;;;3.17;2.60;;;;;;;11.74;100.00;96207.28;10373955;28;20201;-77
2022/05/31 18:42:44;;;;;;;9.95;3.58;;;;;;;11.39;100.00;96210.34;10372986;28;20254;-77
2022/05/31 18:47:45;;;;;;;6.05;4.05;;;;;;;11.11;100.00;96204.75;10355893;28;20276;-77
2022/05/31 18:52:46;;;;;;;7.28;5.20;;;;;;;10.97;100.00;96216.00;10373380;28;20232;-77
2022/05/31 18:57:50;;;;;;;16.30;6.57;;;;;;;10.93;100.00;96230.41;10354667;28;20805;-77
2022/05/31 19:02:51;;;;;;;5.93;4.07;;;;;;;10.99;100.00;96232.34;10355982;28;20185;-77
2022/05/31 19:07:52;;;;;;;8.80;4.83;;;;;;;10.94;100.00;96235.47;10354533;28;20221;-77
2022/05/31 19:12:55;;;;;;;7.00;6.30;;;;;;;10.62;100.00;96237.22;10372887;28;20655;-77
2022/05/31 19:17:58;;;;;;;5.47;5.07;;;;;;;10.68;100.00;96249.66;10372456;28;20186;-78
2022/05/31 19:22:59;;;;;;;6.13;4.80;;;;;;;10.48;100.00;96254.44;10372508;28;20185;-78
2022/05/31 19:28:00;;;;;;;7.37;6.43;;;;;;;10.18;100.00;96253.31;10374532;28;20972;-78
2022/05/31 19:33:03;;;;;;;9.83;8.17;;;;;;;10.11;100.00;96275.91;10386600;28;20649;-78
2022/05/31 19:38:06;;;;;;;6.63;5.93;;;;;;;10.23;100.00;96307.78;10389645;28;20272;-78
2022/05/31 19:43:06;;;;;;;6.17;5.60;;;;;;;10.23;100.00;96302.56;10395433;28;20196;-79
2022/05/31 19:48:07;;;;;;;10.70;7.60;;;;;;;9.99;100.00;96312.88;10395103;28;20220;-78
2022/05/31 19:53:08;;;;;;;8.37;6.40;;;;;;;10.10;100.00;96335.28;10412667;28;20255;-78
2022/05/31 19:58:08;;;;;;;8.70;6.73;;;;;;;10.11;100.00;96325.66;10378032;28;20231;-79
2022/05/31 20:03:09;;;;;;;9.77;6.07;;;;;;;10.02;100.00;96318.78;10395078;28;20308;-78
2022/05/31 20:08:11;;;;;;;11.70;5.83;;;;;;;9.99;100.00;96330.38;10411267;28;20224;-79
2022/05/31 20:13:12;;;;;;;7.80;7.00;;;;;;;9.74;100.00;96326.88;10394683;28;20716;-79
2022/05/31 20:23:25;;;;;;;8.73;7.13;;;;;;;9.58;100.00;96318.03;10411914;28;20294;-80
2022/05/31 20:28:26;;;;;;;12.13;6.90;;;;;;;9.31;100.00;96313.91;10411674;28;20216;-81
2022/05/31 20:33:27;;;;;;;9.93;8.90;;;;;;;9.19;100.00;96343.88;10394159;28;20196;-77
2022/05/31 20:38:47;;;;;;;11.50;9.30;;;;;;;9.06;100.00;96334.69;10393518;28;20212;-79
2022/05/31 20:43:49;;;;;;;11.53;9.00;;;;;;;9.21;100.00;96355.81;10393771;28;20266;-80
2022/05/31 20:48:49;;;;;;;7.90;6.73;;;;;;;9.30;100.00;96354.06;10410989;28;20192;-79
2022/05/31 20:53:50;;;;;;;8.10;7.30;;;;;;;9.24;100.00;96318.91;10392803;28;20227;-79
2022/05/31 20:58:50;;;;;;;14.13;11.47;;;;;;;9.23;100.00;96338.22;10410868;28;20199;-79
2022/05/31 21:03:50;;;;;;;12.43;10.60;;;;;;;9.34;100.00;96336.25;10410621;28;20644;-80
2022/05/31 21:08:52;;;;;;;14.07;9.43;;;;;;;9.23;100.00;96347.81;10391505;28;20771;-79
2022/05/31 21:13:52;;;;;;;10.00;9.00;;;;;;;9.20;100.00;96346.34;10394279;28;20192;-79
2022/05/31 21:18:52;;;;;;;8.93;7.90;;;;;;;9.05;100.00;96340.91;10411037;28;20244;-79
2022/05/31 21:23:53;;;;;;;9.73;7.80;;;;;;;8.88;100.00;96350.44;10411176;28;20204;-79
2022/05/31 21:28:53;;;;;;;10.23;8.50;;;;;;;8.55;100.00;96378.13;10410697;28;20197;-79
2022/05/31 21:33:54;;;;;;;9.60;8.70;;;;;;;8.39;100.00;96370.94;10392967;28;20193;-79
2022/05/31 21:44:14;;;;;;;11.33;10.33;;;;;;;8.52;100.00;96373.22;10411084;28;20254;-78
2022/05/31 21:49:14;;;;;;;9.57;7.97;;;;;;;8.59;100.00;96371.66;10410341;28;20723;-79
2022/05/31 21:54:15;;;;;;;8.07;7.27;;;;;;;8.63;100.00;96366.94;10415557;28;20591;-80
2022/05/31 21:59:23;;;;;;;12.03;9.67;;;;;;;8.74;100.00;96371.88;10400906;28;20696;-78
2022/05/31 22:04:23;;;;;;;9.07;8.17;;;;;;;8.98;100.00;96373.03;10400012;28;20213;-79
2022/05/31 22:09:24;;;;;;;12.17;10.87;;;;;;;9.20;100.00;96369.84;10417536;28;20193;-78
2022/05/31 22:14:24;;;;;;;12.43;9.33;;;;;;;9.21;100.00;96378.53;10418381;28;20632;-79
2022/05/31 22:19:24;;;;;;;19.40;16.30;;;;;;;9.43;100.00;96374.53;10403520;28;20533;-80
2022/05/31 22:25:12;;;;;;;17.83;16.03;;;;;;;9.54;100.00;96371.66;10418473;28;20209;-80
2022/05/31 22:29:46;;;;;;;19.17;17.17;;;;;;;9.64;100.00;96367.09;10417286;28;20204;-81
2022/05/31 22:34:46;;;;;;;17.73;16.07;;;;;;;9.69;100.00;96360.56;10416547;28;20185;-81
2022/05/31 22:39:55;;;;;;;19.80;17.70;;;;;;;9.76;100.00;96351.13;10416446;28;20185;-82
2022/05/31 22:44:56;;;;;;;19.00;16.83;;;;;;;9.97;100.00;96350.66;10416042;28;20217;-81
2022/05/31 22:49:56;;;;;;;18.97;16.30;;;;;;;9.84;100.00;96358.16;10397632;28;20200;-80
2022/05/31 22:54:57;;;;;;;18.63;15.97;;;;;;;9.79;100.00;96346.38;10397390;28;20323;-81
2022/05/31 23:00:00;;;;;;;15.37;13.27;;;;;;;9.88;100.00;96330.69;10415082;28;20192;-81
2022/05/31 23:05:00;;;;;;;16.27;14.43;;;;;;;9.82;100.00;96327.72;10396612;28;20224;-81
2022/05/31 23:10:00;;;;;;;15.60;13.80;;;;;;;9.74;100.00;96329.50;10414666;28;20675;-82
2022/05/31 23:15:01;;;;;;;14.57;12.70;;;;;;;9.50;100.00;96325.88;10414615;28;20231;-82
2022/05/31 23:20:03;;;;;;;14.43;12.93;;;;;;;9.39;100.00;96315.72;10413956;28;20200;-81
2022/05/31 23:25:05;;;;;;;14.03;12.63;;;;;;;9.19;100.00;96307.28;10380447;28;20243;-82
2022/05/31 23:31:03;;;;;;;17.10;12.50;;;;;;;9.02;100.00;96309.03;10413698;28;20184;-81
2022/05/31 23:35:26;;;;;;;15.93;11.57;;;;;;;8.84;100.00;96309.94;10413746;28;20270;-82
2022/05/31 23:40:27;;;;;;;12.80;10.97;;;;;;;8.76;100.00;96304.69;10413581;28;20894;-82
2022/05/31 23:45:27;;;;;;;12.27;11.07;;;;;;;8.54;100.00;96298.97;10413845;28;20224;-81
2022/05/31 23:50:27;;;;;;;11.37;10.17;;;;;;;8.31;100.00;96303.84;10413398;28;20193;-82
2022/05/31 23:55:28;;;;;;;9.07;8.17;;;;;;;8.31;100.00;96295.22;10412989;28;20319;-82
